Date,TemperatureHighF,TemperatureAvgF,TemperatureLowF,DewpointHighF,DewpointAvgF,DewpointLowF,HumidityHigh,HumidityAvg,HumidityLow,PressureMaxIn,PressureMinIn,WindSpeedMaxMPH,WindSpeedAvgMPH,GustSpeedMaxMPH,PrecipitationSumIn
2013-1-1,28,20,15,23,16,11,89,83,78,29.95,29.83,22,8,23,0.00
2013-1-2,21,19,16,17,15,12,92,86,77,30.09,29.91,22,8,28,0.00
2013-1-3,26,21,18,25,19,15,95,91,82,30.09,29.91,27,9,35,0.00
2013-1-4,30,27,25,25,22,18,93,81,64,30.00,29.84,34,19,40,0.00
2013-1-5,30,28,26,26,24,21,92,86,77,30.24,30.00,34,10,39,0.00
2013-1-6,32,31,28,31,29,25,98,92,84,30.04,29.84,21,11,24,0.00
2013-1-7,31,26,22,31,24,21,98,91,83,30.32,30.05,21,8,24,0.00
2013-1-8,37,31,26,25,22,20,82,70,58,30.26,30.13,17,8,23,0.00
2013-1-9,44,37,33,36,30,25,80,75,67,30.34,29.97,38,15,47,0.00
2013-1-10,38,34,31,29,28,26,90,77,67,30.55,30.33,17,7,24,0.00
2013-1-11,45,42,37,44,34,20,98,77,43,30.31,29.86,21,10,28,0.00
2013-1-12,54,49,44,50,47,44,98,93,84,30.02,29.94,19,8,28,0.00
2013-1-13,63,55,50,56,52,49,98,89,77,29.96,29.76,25,8,34,0.00
2013-1-14,54,30,24,54,27,21,98,90,82,30.33,29.76,33,12,52,0.00
2013-1-15,29,25,23,22,20,19,88,82,70,30.32,30.07,9,4,11,0.00
2013-1-16,33,30,27,29,24,20,90,80,64,30.05,29.74,24,7,35,0.00
2013-1-17,30,24,14,28,21,12,95,90,82,30.07,29.82,18,8,30,0.00
2013-1-18,31,19,13,17,12,8,92,76,57,30.33,29.98,26,11,34,0.00
2013-1-19,44,39,31,29,24,17,60,55,45,29.97,29.59,26,16,39,0.00
2013-1-20,44,26,15,33,19,9,91,75,51,29.99,29.47,50,22,62,0.00
2013-1-21,17,14,8,14,10,5,91,86,72,29.97,29.76,20,6,28,0.00
2013-1-22,9,5,4,5,1,-4,88,83,66,30.05,29.79,31,14,37,0.00
2013-1-23,9,6,2,6,4,-1,89,87,83,30.09,29.97,13,4,14,0.00
2013-1-24,12,6,3,9,3,0,90,87,75,30.39,29.96,13,3,18,0.00
2013-1-25,13,8,2,8,4,-2,90,86,74,30.37,29.94,10,3,11,0.00
2013-1-26,22,15,8,14,10,5,91,82,67,30.31,29.96,6,2,11,0.00
2013-1-27,27,21,16,18,16,14,93,81,64,30.44,30.24,10,3,13,0.00
2013-1-28,44,35,26,44,33,15,98,91,58,30.24,29.83,25,11,38,0.00
2013-1-29,54,44,34,54,44,34,99,99,98,29.99,29.74,20,8,31,0.00
2013-1-30,63,57,52,55,52,49,99,82,69,29.71,29.06,23,12,40,0.00
2013-1-31,52,24,17,49,21,14,97,90,78,29.63,29.07,43,24,59,0.00
2013-2-1,17,15,12,14,12,9,92,88,79,30.09,29.64,24,14,34,0.00
2013-2-2,16,12,8,12,9,4,91,87,82,30.09,29.85,20,8,25,0.00
2013-2-3,24,16,10,18,13,8,92,90,75,29.86,29.68,12,3,25,0.00
2013-2-4,16,15,13,13,12,8,92,87,74,29.86,29.78,22,8,30,0.00
2013-2-5,25,19,13,18,15,11,92,84,71,29.82,29.74,11,4,18,0.00
2013-2-6,24,20,14,22,16,11,94,83,69,30.26,29.80,24,9,29,0.00
2013-2-7,34,26,14,25,18,12,90,73,60,30.26,29.95,24,7,26,0.00
2013-2-8,35,28,14,33,25,12,96,88,76,30.02,29.68,18,8,24,0.00
2013-2-9,17,14,11,15,12,9,92,91,90,30.31,30.03,13,5,17,0.00
2013-2-10,43,29,14,25,18,12,93,66,45,30.29,29.89,15,6,22,0.00
2013-2-11,47,36,30,44,31,22,97,83,56,29.90,29.56,35,17,56,0.00
2013-2-12,30,28,26,26,24,22,92,87,80,29.91,29.71,34,18,46,0.00
2013-2-13,39,28,24,25,23,21,93,80,54,29.84,29.65,9,4,14,0.00
2013-2-14,37,30,23,34,27,21,97,89,69,29.83,29.73,21,8,25,0.00
2013-2-15,34,30,24,33,24,19,97,81,69,29.97,29.74,27,16,37,0.00
2013-2-16,20,17,14,18,13,10,91,84,80,29.89,29.82,7,3,13,0.00
2013-2-17,16,12,8,15,8,2,92,84,68,30.09,29.80,24,12,34,0.00
2013-2-18,37,21,7,26,11,4,91,68,38,30.16,29.82,15,5,20,0.00
2013-2-19,40,31,19,35,26,17,95,83,55,29.83,29.53,31,14,52,0.00
2013-2-20,18,16,14,17,13,10,92,88,79,30.00,29.70,40,19,41,0.00
2013-2-21,16,14,12,14,11,8,91,87,81,30.29,29.98,25,10,30,0.00
2013-2-22,32,25,16,28,22,14,92,86,68,30.27,29.93,22,12,28,0.00
2013-2-23,34,29,25,31,27,22,96,91,85,29.93,29.81,13,6,20,0.00
2013-2-24,26,25,24,24,23,22,94,90,86,30.03,29.79,22,10,28,0.00
2013-2-25,31,28,24,25,24,21,93,85,72,30.16,30.03,12,4,14,0.00
2013-2-26,37,31,24,32,25,20,96,80,63,30.12,29.61,28,12,33,0.00
2013-2-27,35,33,31,34,32,31,98,96,92,29.61,29.52,18,5,22,0.00
2013-2-28,31,30,29,31,30,28,98,97,97,29.69,29.48,16,8,21,0.00
2013-3-1,29,24,21,28,23,20,97,95,94,29.87,29.69,9,0,14,0.00
2013-3-2,21,20,19,20,18,17,94,94,93,29.86,29.81,0,0,0,0.00
2013-3-3,20,18,17,18,17,16,94,93,92,29.84,29.77,18,5,21,0.00
2013-3-4,23,20,16,22,18,14,94,93,93,29.99,29.83,24,13,30,0.00
2013-3-5,33,25,19,31,22,18,94,89,76,30.01,29.83,25,8,27,0.00
2013-3-6,36,30,23,30,26,21,92,85,69,30.07,29.82,19,11,24,0.00
2013-3-7,33,31,28,30,29,27,97,94,88,30.21,30.06,9,3,12,0.00
2013-3-8,38,31,28,27,25,22,96,80,57,30.35,30.20,14,6,20,0.00
2013-3-9,48,36,25,34,26,23,96,70,41,30.35,30.15,13,4,15,0.00
2013-3-10,61,51,42,30,26,22,49,39,31,30.15,29.97,15,9,22,0.00
2013-3-11,56,50,44,45,31,27,94,48,38,29.96,29.63,21,11,33,0.00
2013-3-12,43,33,29,42,31,26,97,94,90,29.87,29.70,25,12,33,0.00
2013-3-13,30,26,20,26,22,16,94,85,69,29.89,29.79,31,14,43,0.00
2013-3-14,26,22,18,18,14,8,91,72,49,30.01,29.90,31,18,41,0.00
2013-3-15,30,27,22,29,24,17,96,91,78,29.98,29.72,27,12,39,0.00
2013-3-16,26,23,18,21,19,16,90,85,77,29.90,29.73,12,6,14,0.00
2013-3-17,28,22,17,19,16,10,93,78,56,30.23,29.90,13,6,19,0.00
2013-3-18,33,25,16,30,20,10,92,81,60,30.22,29.61,25,15,32,0.00
2013-3-19,33,27,21,32,25,18,96,91,83,29.77,29.60,29,13,35,0.00
2013-3-20,25,22,20,22,18,14,93,85,67,29.77,29.73,25,12,36,0.00
2013-3-21,24,20,16,23,18,14,94,90,80,29.75,29.65,20,9,30,0.00
2013-3-22,25,23,22,24,22,19,95,94,85,29.89,29.69,24,14,31,0.00
2013-3-23,32,27,24,26,25,23,95,91,75,29.97,29.87,21,9,29,0.00
2013-3-24,34,28,22,25,22,19,95,79,58,29.97,29.61,25,8,30,0.00
2013-3-25,36,30,26,27,24,21,91,79,66,29.69,29.54,25,11,29,0.00
2013-3-26,40,33,28,31,28,25,89,81,65,29.92,29.69,17,7,20,0.00
2013-3-27,33,30,27,30,28,25,97,90,85,30.02,29.90,21,10,29,0.00
2013-3-28,35,32,29,33,30,29,97,94,84,30.17,30.00,14,7,18,0.00
2013-3-29,43,36,31,31,29,25,94,78,53,30.17,30.12,17,7,24,0.00
2013-3-30,45,38,29,31,25,22,82,62,40,30.18,30.00,13,4,22,0.00
2013-3-31,51,42,39,40,30,22,94,66,44,30.00,29.61,18,8,24,0.00
2013-4-1,42,30,23,39,26,17,97,85,62,29.91,29.57,35,15,40,0.00
2013-4-2,28,24,20,23,17,12,93,76,61,30.06,29.90,28,15,43,0.00
2013-4-3,29,25,22,21,18,15,83,74,59,30.33,30.05,22,12,31,0.00
2013-4-4,51,34,18,21,16,10,88,53,20,30.28,29.90,15,4,18,0.00
2013-4-5,38,34,26,28,21,14,73,59,39,30.11,29.86,21,8,26,0.00
2013-4-6,47,36,23,20,17,13,81,50,27,30.25,29.99,12,5,18,0.00
2013-4-7,62,52,40,46,36,19,83,57,34,30.01,29.75,36,16,43,0.00
2013-4-8,64,50,34,50,39,31,90,67,40,30.06,29.80,29,6,39,0.00
2013-4-9,63,50,40,51,44,39,97,80,46,30.11,29.80,30,11,46,0.00
2013-4-10,50,44,38,50,44,37,99,98,97,29.98,29.81,21,9,23,0.00
2013-4-11,38,33,30,38,32,29,99,97,94,30.05,29.79,25,11,32,0.00
2013-4-12,51,40,33,49,39,32,98,96,92,29.78,29.48,28,14,42,0.00
2013-4-13,39,36,33,35,33,30,98,90,72,29.88,29.75,30,14,34,0.00
2013-4-14,42,38,33,30,29,27,84,68,59,30.12,30.03,22,9,27,0.00
2013-4-15,70,57,39,48,42,30,71,59,43,30.08,30.00,20,9,27,0.00
2013-4-16,60,54,43,56,50,43,98,87,70,30.21,30.00,24,11,30,0.00
2013-4-17,55,46,37,42,35,31,98,69,47,30.31,30.15,22,7,24,0.00
2013-4-18,76,63,47,59,51,36,80,66,55,30.14,29.74,23,13,37,0.00
2013-4-19,68,51,36,58,42,-100,95,77,69,29.75,29.44,32,-17,43,0.00
2013-4-20,37,31,27,30,26,22,94,81,69,30.36,29.74,34,16,48,0.00
2013-4-21,42,33,24,27,23,20,88,70,49,30.60,30.36,18,6,19,0.00
2013-4-22,58,46,34,28,26,23,69,48,29,30.51,30.30,17,8,21,0.00
2013-4-23,67,52,37,37,32,25,72,49,30,30.30,29.95,13,6,20,0.00
2013-4-24,62,49,32,54,42,32,97,79,50,30.02,29.63,27,13,37,0.00
2013-4-25,50,39,32,37,33,27,98,81,41,30.29,30.03,26,9,32,0.00
2013-4-26,50,42,33,37,26,16,95,61,27,30.45,30.29,14,5,19,0.00
2013-4-27,68,55,42,37,30,16,54,41,26,30.41,30.21,13,5,16,0.00
2013-4-28,66,57,50,46,40,33,83,57,37,30.21,29.99,20,9,31,0.00
2013-4-29,60,54,48,52,48,44,89,81,73,30.04,29.95,20,8,22,0.00
2013-4-30,69,60,54,53,51,49,89,73,53,30.21,30.04,17,8,22,0.00
2013-5-1,76,65,53,52,47,36,83,57,32,30.34,30.22,11,6,21,0.00
2013-5-2,74,64,54,41,35,32,49,35,21,30.41,30.27,18,7,19,0.00
2013-5-3,74,65,56,45,41,37,52,42,32,30.31,30.20,17,7,20,0.00
2013-5-4,71,62,49,42,37,28,65,42,23,30.27,30.14,14,7,16,0.00
2013-5-5,72,63,53,45,36,27,63,39,19,30.21,30.09,18,7,24,0.00
2013-5-6,76,62,49,47,35,26,60,38,19,30.15,30.02,12,5,16,0.00
2013-5-7,73,64,55,52,49,42,82,59,33,30.13,30.01,16,7,21,0.00
2013-5-8,65,60,56,57,53,48,94,78,62,30.05,29.94,14,5,15,0.00
2013-5-9,64,57,54,60,55,53,99,94,80,30.00,29.89,10,4,13,0.00
2013-5-10,70,60,57,62,54,44,97,80,61,29.99,29.75,17,6,21,0.00
2013-5-11,57,47,43,56,46,42,98,97,91,29.79,29.70,19,10,27,0.00
2013-5-12,47,38,33,45,34,30,98,86,64,29.93,29.71,34,16,44,0.00
2013-5-13,41,36,33,32,30,27,96,77,63,30.12,29.93,20,11,25,0.00
2013-5-14,52,44,32,41,31,25,90,65,41,30.13,29.93,14,5,15,0.00
2013-5-15,74,60,48,59,48,39,78,65,50,29.92,29.62,36,12,50,0.00
2013-5-16,69,61,48,50,44,33,78,55,35,30.03,29.77,25,9,35,0.00
2013-5-17,62,52,44,43,39,-100,83,64,46,30.22,30.03,13,-3,15,0.00
2013-5-18,71,61,52,54,44,34,76,55,39,30.23,30.14,17,8,20,0.00
2013-5-19,77,66,56,63,58,53,90,76,58,30.16,30.03,9,5,16,0.00
2013-5-20,81,67,59,65,60,57,94,81,56,30.07,30.00,8,4,14,0.00
2013-5-30,78,69,71,66,55,-100,77,70,67,30.13,30.12,4,-53,6,0.00
2013-5-31,84,75,66,66,63,60,87,68,47,30.14,29.99,18,6,23,0.00
2013-6-1,81,71,64,67,64,61,96,80,59,30.03,29.81,21,8,29,0.00
2013-6-2,70,63,55,65,55,-100,97,83,65,29.91,29.74,29,-20,42,0.00
2013-6-3,55,47,44,52,37,-100,95,77,54,30.05,29.91,13,-47,20,0.00
2013-6-4,62,52,43,44,37,-100,94,64,39,30.19,30.06,11,-28,15,0.00
2013-6-5,67,58,48,49,44,40,82,62,39,30.21,30.05,21,8,25,0.00
2013-6-6,58,56,54,57,53,45,97,88,69,30.05,29.83,14,5,20,0.00
2013-6-7,57,56,54,57,55,54,99,98,97,29.87,29.82,8,3,11,0.00
2013-6-8,58,55,54,56,54,50,99,96,84,30.12,29.84,11,5,15,0.00
2013-6-9,75,63,50,57,53,48,93,71,48,30.21,30.11,10,3,12,0.00
2013-6-10,68,66,63,65,62,56,95,86,75,30.12,29.76,14,5,18,0.00
2013-6-11,65,61,58,63,60,58,99,97,93,29.89,29.70,17,10,25,0.00
2013-6-12,74,65,56,59,55,50,98,73,45,29.96,29.80,9,2,14,0.00
2013-6-13,67,60,54,65,58,53,98,94,62,29.81,29.50,24,6,24,0.00
2013-6-14,66,59,53,58,56,53,99,90,72,30.03,29.81,13,4,19,0.00
2013-6-15,67,60,53,57,52,42,97,77,41,30.10,30.00,21,5,22,0.02
2013-6-16,68,63,59,64,59,53,98,87,72,30.00,29.77,23,8,33,0.13
2013-6-17,73,67,61,61,57,53,94,72,53,29.96,29.88,18,7,29,0.00
2013-6-18,63,60,55,57,53,46,97,80,58,30.04,29.90,15,6,18,0.00
2013-6-19,65,58,50,48,45,42,82,64,48,30.21,30.04,14,6,21,0.00
2013-6-20,74,63,49,52,46,39,78,57,34,30.27,30.20,10,4,15,0.00
2013-6-21,79,68,57,59,53,47,72,60,39,30.30,30.22,10,3,12,0.00
2013-6-22,82,74,63,67,62,54,83,67,56,30.22,30.08,26,6,26,0.00
2013-6-23,82,76,71,71,66,62,83,72,58,30.14,30.07,14,7,22,0.00
2013-6-24,80,73,70,68,65,63,81,74,60,30.12,30.03,14,6,25,0.00
2013-6-25,76,71,68,68,65,62,88,82,68,30.03,29.87,19,8,26,0.00
2013-6-27,75,70,63,69,64,-100,95,84,76,29.82,29.68,6,2,9,0.10
2013-6-28,69,64,61,64,62,61,98,94,81,29.68,29.52,27,3,27,0.39
2013-6-29,72,64,60,63,61,60,98,89,70,29.74,29.52,13,4,15,0.35
2013-6-30,74,66,58,65,62,58,98,86,70,29.95,29.74,13,4,17,0.00
2013-7-1,65,62,58,62,60,58,98,93,83,30.07,29.94,23,10,28,0.25
2013-7-2,77,66,57,70,64,57,98,91,75,30.12,30.01,17,6,22,0.00
2013-7-3,83,74,67,72,69,66,97,83,62,30.20,30.12,8,3,12,0.00
2013-7-4,80,72,68,71,68,66,97,87,61,30.24,30.17,14,3,17,0.27
2013-7-5,78,71,67,70,67,65,96,87,70,30.19,30.12,12,4,20,0.00
2013-7-6,82,72,67,72,68,65,98,87,67,30.20,30.09,7,3,8,0.00
2013-7-7,75,70,66,70,67,63,96,88,76,30.12,30.01,14,6,22,0.19
2013-7-8,77,70,66,68,65,64,94,86,72,30.12,30.04,11,5,16,0.00
2013-7-9,77,71,67,71,68,65,96,90,81,30.10,29.96,9,2,14,0.15
2013-7-10,80,72,66,73,68,61,96,89,78,29.95,29.79,27,9,28,0.01
2013-7-11,71,64,56,63,57,54,97,81,58,30.06,29.90,12,5,16,0.06
2013-7-12,70,64,59,61,59,57,95,84,70,30.21,30.06,13,6,16,0.00
2013-7-13,75,69,60,68,63,56,89,82,73,30.30,30.18,12,5,16,0.00
2013-7-14,86,76,67,72,68,65,92,77,56,30.36,30.30,7,2,10,0.00
2013-7-15,84,77,70,72,69,67,94,79,61,30.37,30.30,9,3,13,0.00
2013-7-16,84,78,70,72,69,67,90,75,58,30.36,30.28,12,3,15,0.00
2013-7-17,84,78,71,76,71,68,90,81,61,30.32,30.18,15,6,22,0.00
2013-7-18,84,78,73,75,72,68,95,81,65,30.20,30.04,19,6,24,0.00
2013-7-19,85,78,66,73,70,64,95,76,59,30.04,29.82,25,11,33,0.56
2013-7-20,74,69,66,69,66,63,96,91,75,29.94,29.75,22,8,29,0.12
2013-7-21,76,69,62,65,60,58,95,75,59,30.04,29.94,10,4,11,0.00
2013-7-22,76,68,61,68,61,56,89,80,69,30.04,29.87,12,5,13,0.11
2013-7-23,69,66,61,65,63,59,96,92,86,29.77,29.69,14,7,17,0.24
2013-7-24,62,58,52,58,51,48,93,79,64,30.06,29.77,18,6,20,0.00
2013-7-25,68,60,52,54,50,46,84,69,55,30.15,30.06,14,5,18,0.00
2013-7-26,78,66,54,58,52,47,84,64,41,30.16,30.04,10,3,10,0.00
2013-7-27,74,67,62,64,60,55,92,78,67,30.04,29.86,8,3,13,0.04
2013-7-28,65,62,57,63,57,53,93,83,71,30.02,29.85,17,6,19,0.00
2013-7-29,64,58,54,57,54,51,93,86,74,30.18,30.01,13,5,20,0.04
2013-7-30,69,62,54,58,56,53,95,81,64,30.24,30.18,17,4,21,0.00
2013-7-31,75,66,56,62,57,52,86,73,56,30.20,29.98,11,3,12,0.00
2013-8-1,70,65,61,63,60,58,93,83,70,29.97,29.85,18,6,24,0.09
2013-8-2,70,65,61,62,58,55,98,81,60,29.95,29.89,21,7,27,0.03
2013-8-3,69,64,59,62,56,49,97,78,54,30.00,29.89,16,7,21,0.00
2013-8-4,65,59,54,58,54,48,95,82,68,30.10,29.99,17,6,21,0.00
2013-8-5,68,59,49,55,51,46,91,75,51,30.15,30.05,8,2,11,0.00
2013-8-6,78,66,54,59,55,51,91,68,48,30.09,30.02,6,2,10,0.00
2013-8-7,78,70,61,67,62,58,90,78,64,30.03,29.92,15,6,19,0.00
2013-8-8,78,70,64,72,67,62,96,89,76,30.01,29.95,8,2,12,0.75
2013-8-9,71,66,62,68,63,56,98,89,71,30.01,29.90,15,4,17,0.80
2013-8-10,67,63,58,59,54,49,93,75,56,30.14,30.01,17,6,22,0.00
2013-8-11,69,62,53,55,53,50,95,74,52,30.18,30.09,10,2,15,0.00
2013-8-12,71,65,60,62,58,52,90,77,62,30.10,29.91,11,3,14,0.00
2013-8-13,65,61,53,63,56,45,97,86,69,29.93,29.80,18,8,31,0.50
2013-8-14,62,55,51,52,50,46,94,81,56,30.13,29.90,21,9,25,0.00
2013-8-15,66,58,49,55,51,46,91,78,58,30.18,30.13,14,5,21,0.00
2013-8-16,70,62,51,57,53,49,94,74,56,30.25,30.16,10,2,11,0.00
2013-8-17,76,67,58,57,54,51,79,64,47,30.33,30.25,7,3,12,0.00
2013-8-18,76,68,61,61,57,52,86,69,53,30.29,30.16,6,2,10,0.00
2013-8-19,74,66,59,63,59,56,93,79,54,30.18,30.10,11,3,16,0.00
2013-8-20,76,67,59,63,59,54,93,74,54,30.20,30.12,14,4,23,0.00
2013-8-21,79,70,61,65,61,57,87,73,56,30.23,30.09,9,3,13,0.00
2013-8-22,77,70,64,68,64,58,96,83,72,30.11,29.99,22,6,26,0.00
2013-8-23,72,66,57,59,55,51,84,68,51,30.24,30.06,14,6,18,0.00
2013-8-24,76,64,54,56,52,49,87,68,42,30.39,30.24,10,4,12,0.00
2013-8-25,75,67,58,59,55,52,80,67,50,30.38,30.21,15,6,19,0.00
2013-8-26,75,68,66,67,63,59,96,82,73,30.23,30.01,17,8,26,0.38
2013-8-27,78,71,67,71,68,66,97,91,77,30.01,29.93,11,4,13,0.29
2013-8-28,77,71,67,70,68,65,97,89,76,30.00,29.90,11,3,12,0.27
2013-8-29,80,73,67,68,66,64,95,79,59,30.10,30.00,10,5,15,0.00
2013-8-30,80,71,64,68,66,62,96,83,63,30.07,29.81,13,4,17,0.00
2013-8-31,76,71,67,70,67,64,94,86,72,29.90,29.78,14,6,18,0.06
2013-9-1,80,70,65,70,66,64,98,88,65,29.88,29.81,9,3,12,0.17
2013-9-2,75,68,60,69,65,55,97,89,71,29.85,29.77,16,6,21,0.03
2013-9-3,60,58,56,59,56,54,96,93,82,30.01,29.83,17,7,22,0.03
2013-9-4,69,62,55,60,56,51,97,80,57,30.05,30.00,21,10,30,0.09
2013-9-5,62,56,50,60,49,38,96,77,48,30.25,30.02,15,6,20,0.08
2013-9-6,66,54,42,51,43,38,88,68,43,30.31,30.14,9,2,11,0.00
2013-9-7,62,58,53,59,51,45,95,79,65,30.13,29.94,12,5,15,0.35
2013-9-8,64,59,49,63,53,43,97,81,59,30.13,29.91,16,7,22,0.22
2013-9-9,72,60,48,64,53,41,93,77,66,30.15,30.03,14,5,17,0.00
2013-9-10,85,76,64,75,70,62,93,83,70,30.11,30.01,18,9,23,0.00
2013-9-11,84,77,70,75,71,65,91,81,66,30.12,29.99,17,6,37,0.08
2013-9-12,68,65,57,67,63,55,97,92,87,30.04,29.79,16,7,30,0.18
2013-9-13,57,50,45,55,48,44,97,94,90,30.04,29.81,14,7,19,0.08
2013-9-14,56,49,44,44,42,40,96,79,58,30.15,30.02,10,4,18,0.00
2013-9-15,61,53,46,52,46,35,93,75,62,30.19,30.09,12,4,13,0.02
2013-9-16,54,48,41,52,47,40,97,95,93,30.37,30.10,14,5,16,0.02
2013-9-17,63,50,39,44,40,38,97,71,45,30.46,30.30,14,4,18,0.00
2013-9-18,75,59,47,57,46,39,86,65,48,30.30,30.14,9,3,11,0.00
2013-9-19,60,55,52,54,48,46,81,77,76,30.16,30.14,4,3,10,0.00
2013-9-22,51,47,44,44,42,40,86,82,74,30.04,29.93,12,5,17,0.00
2013-9-23,54,48,44,43,42,40,92,79,62,30.16,30.04,10,3,14,0.00
2013-9-24,63,52,40,49,44,38,96,77,55,30.15,30.02,7,2,11,0.00
2013-9-25,67,56,44,51,46,39,82,68,47,30.03,29.96,11,4,13,0.00
2013-9-26,65,56,49,54,48,40,87,74,64,30.16,30.01,14,6,15,0.00
2013-9-27,67,57,50,54,51,47,92,81,60,30.27,30.16,11,6,14,0.00
2013-9-28,72,60,53,56,52,49,93,75,53,30.30,30.18,11,3,17,0.00
2013-9-29,72,61,52,56,51,47,83,72,54,30.18,30.03,10,4,16,0.00
2013-9-30,70,62,56,61,56,51,90,80,66,30.05,29.99,11,4,15,0.00
2013-10-1,68,62,58,58,57,54,95,83,62,30.07,29.98,15,6,20,0.00
2013-10-2,68,63,58,61,58,52,93,84,68,30.12,29.99,16,7,22,0.00
2013-10-3,72,61,49,62,49,36,93,67,46,30.15,30.05,6,3,8,0.00
2013-10-4,70,66,64,66,64,63,96,93,86,30.10,30.03,15,6,19,0.00
2013-10-5,72,64,61,66,63,60,98,94,79,30.11,30.02,12,3,13,0.00
2013-10-6,79,70,63,70,65,60,98,84,62,30.01,29.77,16,5,24,0.00
2013-10-7,71,55,47,62,51,42,97,84,65,30.07,29.68,27,11,37,0.00
2013-10-8,61,52,45,47,44,42,97,76,54,30.34,30.08,12,3,13,0.00
2013-10-9,65,55,46,47,43,39,82,66,40,30.39,30.29,8,4,11,0.00
2013-10-10,66,56,46,45,39,32,76,57,28,30.29,30.14,15,5,15,0.00
2013-10-11,68,58,52,48,41,31,77,55,30,30.16,30.11,13,7,14,0.00
2013-10-12,73,62,52,54,44,37,78,55,27,30.20,30.13,11,5,16,0.00
2013-10-13,66,60,57,60,54,39,97,81,44,30.29,30.18,12,4,20,0.00
2013-10-14,59,53,47,57,48,41,97,85,59,30.35,30.28,10,4,15,0.00
2013-10-15,63,56,47,56,51,43,96,86,74,30.29,29.98,14,6,17,0.00
2013-10-16,63,58,53,58,55,50,94,88,73,29.96,29.80,17,8,29,0.00
2013-10-17,60,52,47,50,48,46,97,89,66,29.89,29.68,16,4,24,0.00
2013-10-18,54,49,43,46,43,41,97,82,66,29.91,29.75,18,11,38,0.00
2013-10-19,56,49,42,44,42,40,95,77,59,29.90,29.65,21,8,28,0.00
2013-10-20,47,42,38,43,40,36,96,92,76,29.97,29.78,16,7,24,0.00
2013-10-21,61,54,46,47,38,36,95,58,40,29.96,29.80,20,10,29,0.00
2013-10-22,48,42,38,47,37,32,96,83,66,29.84,29.75,26,11,33,0.00
2013-10-23,41,37,35,38,34,30,96,90,78,29.81,29.69,18,4,22,0.00
2013-10-24,42,36,32,35,32,29,96,85,62,30.00,29.78,21,8,32,0.00
2013-10-25,43,38,36,37,35,34,97,91,77,30.17,30.00,19,8,25,0.00
2013-10-26,40,38,34,35,30,27,95,74,61,30.10,29.77,28,15,39,0.00
2013-10-27,41,39,35,37,34,31,97,84,68,30.03,29.82,19,8,27,0.00
2013-10-28,44,40,34,38,32,22,86,75,59,30.34,30.03,17,7,20,0.00
2013-10-29,47,39,32,32,28,25,78,66,50,30.41,30.26,10,4,14,0.00
2013-10-30,63,49,41,40,37,32,79,64,44,30.26,30.09,9,3,13,0.00
2013-10-31,63,57,50,58,53,38,96,87,63,30.08,29.41,20,9,31,0.00
2013-11-1,62,52,45,57,47,41,94,82,70,29.67,29.24,33,16,46,0.00
2013-11-2,45,42,33,44,40,32,97,94,88,29.95,29.61,16,7,18,0.00
2013-11-3,34,30,26,32,25,20,96,82,60,30.46,29.96,14,5,20,0.00
2013-11-4,39,32,25,22,19,15,81,60,41,30.56,30.38,17,7,20,0.00
2013-11-5,52,44,36,35,29,18,67,57,48,30.44,30.31,13,6,19,0.00
2013-11-6,64,54,44,55,44,31,95,70,58,30.30,29.83,23,11,37,0.00
2013-11-7,52,39,34,51,36,27,97,87,72,29.98,29.82,24,11,38,0.00
2013-11-8,37,35,33,30,29,24,89,78,63,30.19,29.94,20,11,33,0.00
2013-11-9,48,40,33,42,31,26,84,70,48,30.19,29.80,32,8,32,0.00
2013-11-10,46,40,37,42,34,28,86,77,70,30.15,29.78,38,18,49,0.00
2013-11-11,41,35,25,34,30,23,96,84,66,30.16,29.92,29,10,30,0.00
2013-11-12,27,24,21,23,20,17,94,86,75,30.33,30.08,19,8,24,0.00
2013-11-13,32,27,20,25,21,16,88,79,62,30.36,30.09,22,10,33,0.00
2013-11-14,46,37,30,22,18,16,64,49,32,30.10,30.02,26,16,33,0.00
2013-11-15,50,43,38,32,23,19,64,45,32,30.11,30.04,21,10,23,0.00
2013-11-16,57,48,40,44,37,27,77,67,50,30.22,30.01,14,7,25,0.00
2013-11-17,59,54,48,54,50,44,93,85,70,30.01,29.39,35,12,49,0.00
2013-11-18,55,41,32,45,35,26,94,79,68,29.91,29.41,40,21,57,0.00
2013-11-19,34,30,25,28,23,21,88,76,63,30.38,29.91,24,11,34,0.00
2013-11-20,41,31,22,22,16,9,90,59,28,30.48,30.36,16,9,20,0.00
2013-11-21,40,36,33,37,26,14,90,69,45,30.37,30.20,15,7,25,0.00
2013-11-22,45,40,28,45,39,26,98,96,89,30.20,29.99,25,9,40,0.00
2013-11-23,30,24,15,26,19,8,93,81,62,30.16,29.98,34,15,41,0.00
2013-11-24,19,16,11,13,10,7,90,78,61,30.33,30.12,21,12,30,0.00
2013-11-26,31,30,30,30,22,-100,96,90,95,29.85,29.73,5,1,6,0.00
2013-11-27,30,26,19,29,24,15,97,92,80,29.86,29.61,22,10,31,0.00
2013-11-28,23,20,16,20,17,13,93,88,76,30.32,29.87,22,5,31,0.00
2013-11-29,31,21,17,21,16,12,94,83,59,30.63,30.31,9,2,11,0.00
2013-11-30,32,25,18,24,17,9,84,73,63,30.60,30.14,15,7,22,0.00
2013-12-1,39,34,30,31,28,24,87,79,66,30.14,29.91,12,5,13,0.00
2013-12-2,36,33,29,32,30,28,96,88,80,29.91,29.82,8,3,11,0.00
2013-12-3,43,32,26,33,28,24,96,85,62,29.93,29.86,11,3,11,0.00
2013-12-4,53,45,36,42,39,33,90,79,64,29.97,29.85,12,5,20,0.00
2013-12-5,60,47,34,54,43,33,92,86,80,30.00,29.77,24,12,30,0.00
2013-12-6,34,29,26,32,26,23,97,91,83,30.18,29.99,15,7,19,0.00
2013-12-7,25,22,18,24,18,12,94,86,76,30.47,30.19,17,8,25,0.00
2013-12-8,25,20,16,21,15,11,90,82,68,30.48,30.05,20,7,23,0.00
2013-12-9,36,31,25,34,27,22,95,88,80,30.05,29.81,28,13,41,0.00
2013-12-10,27,21,17,22,17,11,93,86,68,29.99,29.84,29,12,41,0.00
2013-12-11,21,18,11,18,16,9,93,92,88,30.19,29.99,19,10,31,0.00
2013-12-12,14,13,11,12,10,7,91,89,78,30.21,29.97,20,10,31,0.00
2013-12-13,22,16,11,20,14,9,94,92,90,30.25,29.95,25,11,30,0.00
2013-12-14,29,17,10,27,15,8,95,91,90,30.26,29.62,23,13,28,0.00
2013-12-15,28,22,16,27,20,10,96,93,77,29.78,29.53,32,10,44,0.00
2013-12-16,17,15,11,14,12,8,91,86,78,30.06,29.78,26,9,37,0.00
2013-12-17,23,22,21,21,20,18,93,90,87,29.86,29.83,13,8,19,0.00
2013-12-18,25,24,22,24,22,18,95,92,83,30.01,29.85,21,10,26,0.00
2013-12-19,39,33,23,33,26,18,90,76,66,29.99,29.84,24,12,31,0.00
2013-12-20,47,42,39,47,40,33,98,92,78,29.94,29.76,19,12,29,0.00
2013-12-21,49,48,47,49,48,47,98,98,97,29.77,29.76,18,15,29,0.00
2013-12-22,59,43,35,54,39,-100,98,94,79,29.93,29.60,28,15,41,0.00
2013-12-23,36,30,22,35,28,19,98,93,84,30.18,29.92,25,11,34,0.00
2013-12-24,23,18,8,22,15,5,94,90,80,30.37,30.10,18,6,25,0.00
2013-12-25,22,13,2,17,9,-1,91,82,72,30.38,30.10,14,3,18,0.00
2013-12-26,27,24,22,25,22,18,95,90,82,30.20,29.98,20,11,29,0.00
2013-12-27,33,26,22,28,24,19,96,90,82,30.19,30.04,20,10,26,0.00
2013-12-28,42,38,33,33,30,28,86,74,64,30.06,29.93,26,13,34,0.00
2013-12-29,42,38,27,36,31,26,96,79,55,29.93,29.60,22,11,31,0.00
2013-12-30,26,16,12,25,13,9,95,88,81,30.10,29.73,24,8,29,0.00
2013-12-31,18,15,13,16,12,9,92,87,78,30.13,29.86,35,11,42,0.00
2014-1-1,18,13,10,13,10,8,92,88,80,30.28,30.13,17,6,20,0.00
2014-1-2,11,7,0,9,5,-3,90,89,87,30.12,29.82,29,16,33,0.00